ADDS METAR Data INFO
IDs: Format: Raw Decoded Include TAF

Data at: 0204 UTC 14 Dec 2017

KFYM 140155Z AUTO 21007KT 10SM BKN075 06/M05 A2981 RMK A01
KFYM 140135Z AUTO 20005KT 10SM OVC075 06/M05 A2981 RMK A01
KFYM 140115Z AUTO 20007KT 10SM OVC075 06/M06 A2981 RMK A01
KFYM 140055Z AUTO 20008KT 10SM OVC080 07/M06 A2980 RMK A01
KFYM 140035Z AUTO 20007KT 10SM OVC080 07/M06 A2981 RMK A01
KFYM 140015Z AUTO 21007KT 10SM SCT085 07/M06 A2981 RMK A01
KFYM 132355Z AUTO 22006G12KT 10SM CLR 07/M07 A2980 RMK A01
KFYM 132335Z AUTO 21009G15KT 10SM CLR 08/M07 A2979 RMK A01
KFYM 132315Z AUTO 21010KT 10SM CLR 08/M07 A2979 RMK A01
KFYM 132255Z AUTO 21014KT 10SM CLR 08/M08 A2978 RMK A01
KFYM 132235Z AUTO 21011G21KT 10SM CLR 09/M08 A2978 RMK A01
KFYM 132215Z AUTO 21014KT 10SM CLR 09/M08 A2977 RMK A01
KFYM 132155Z AUTO 21012G20KT 10SM CLR 09/M08 A2977 RMK A01
KFYM 132135Z AUTO 21013G23KT 10SM CLR 09/M08 A2978 RMK A01
KFYM 132115Z AUTO 20015G20KT 10SM CLR 09/M09 A2980 RMK A01
KFYM 132055Z AUTO 21015G25KT 10SM CLR 09/M09 A2981 RMK A01
KFYM 132035Z AUTO 20013G21KT 10SM CLR 09/M09 A2981 RMK A01
KFYM 132015Z AUTO 21012G19KT 10SM CLR 09/M09 A2982 RMK A01
KFYM 131955Z AUTO 21014G20KT 10SM CLR 09/M09 A2983 RMK A01
KFYM 131935Z AUTO 20015KT 10SM CLR 08/M09 A2984 RMK A01
KFYM 131915Z AUTO 23011G19KT 10SM CLR 08/M09 A2986 RMK A01
KFYM 131855Z AUTO 23012G21KT 10SM CLR 08/M09 A2987 RMK A01
KFYM 131835Z AUTO 21016KT 10SM CLR 07/M10 A2988 RMK A01
KFYM 131815Z AUTO 21012G18KT 10SM CLR 07/M10 A2991 RMK A01
KFYM 131755Z AUTO 21014KT 10SM CLR 06/M11 A2992 RMK A01
KFYM 131735Z AUTO 20012G18KT 10SM CLR 06/M11 A2994 RMK A01
KFYM 131715Z AUTO 21013KT 10SM CLR 05/M12 A2995 RMK A01
KFYM 131655Z AUTO 19012KT 10SM CLR 05/M11 A2997 RMK A01
KFYM 131635Z AUTO 19011KT 10SM CLR 04/M10 A2998 RMK A01
KFYM 131615Z AUTO 19009G14KT 10SM CLR 03/M10 A3000 RMK A01
KFYM 131555Z AUTO 20009G14KT 180V240 10SM CLR 02/M10 A3001 RMK A01
KFYM 131535Z AUTO 20009KT 10SM CLR 02/M10 A3002 RMK A01
KFYM 131515Z AUTO 19010KT 10SM CLR 01/M11 A3002 RMK A01
KFYM 131455Z AUTO 19006KT 10SM CLR 00/M10 A3003 RMK A01
KFYM 131435Z AUTO 18006KT CLR M01/M08 A3002 RMK A01
KFYM 131415Z AUTO 18005KT 10SM CLR M02/M08 A3003 RMK A01
KFYM 131355Z AUTO 17004KT 10SM CLR M03/M07 A3002 RMK A01
KFYM 131335Z AUTO 00000KT 10SM CLR M04/M08 A3003 RMK A01
KFYM 131315Z AUTO 15004KT 10SM CLR M05/M09 A3003 RMK A01
KFYM 131255Z AUTO 18003KT 10SM CLR M06/M09 A3004 RMK A01
KFYM 131235Z AUTO 00000KT 10SM CLR M05/M09 A3004 RMK A01
KFYM 131215Z AUTO 00000KT 10SM CLR M05/M10 A3004 RMK A01
KFYM 131155Z AUTO 00000KT 10SM CLR M05/M09 A3004 RMK A01
KFYM 131135Z AUTO 00000KT 10SM CLR M05/M09 A3004 RMK A01
KFYM 131115Z AUTO 00000KT 10SM CLR M06/M09 A3004 RMK A01
KFYM 131055Z AUTO 00000KT 10SM CLR M05/M08 A3003 RMK A01
KFYM 131035Z AUTO 00000KT 10SM CLR M05/M07 A3004 RMK A01
KFYM 131015Z AUTO 00000KT 10SM CLR M05/M07 A3004 RMK A01
KFYM 130955Z AUTO 00000KT 10SM CLR M05/M07 A3004 RMK A01
KFYM 130935Z AUTO 00000KT 10SM CLR M04/M08 A3005 RMK A01
KFYM 130915Z AUTO 00000KT 10SM CLR M05/M08 A3006 RMK A01
KFYM 130855Z AUTO 00000KT 10SM CLR M04/M09 A3006 RMK A01
KFYM 130835Z AUTO 00000KT 10SM CLR M04/M09 A3007 RMK A01
KFYM 130815Z AUTO 00000KT 10SM CLR M04/M09 A3007 RMK A01
KFYM 130755Z AUTO 00000KT 10SM CLR M04/M08 A3008 RMK A01
KFYM 130735Z AUTO 00000KT 10SM CLR M04/M08 A3008 RMK A01
KFYM 130715Z AUTO 00000KT 10SM CLR M03/M10 A3008 RMK A01
KFYM 130655Z AUTO 00000KT 10SM CLR M02/M11 A3007 RMK A01
KFYM 130635Z AUTO 00000KT 10SM CLR M02/M11 A3007 RMK A01
KFYM 130615Z AUTO 00000KT 10SM CLR M02/M10 A3008 RMK A01
KFYM 130555Z AUTO 00000KT 10SM CLR M02/M11 A3008 RMK A01
KFYM 130535Z AUTO 00000KT 10SM CLR M02/M11 A3008 RMK A01
KFYM 130515Z AUTO 33003KT 10SM CLR M01/M12 A3009 RMK A01
KFYM 130455Z AUTO 00000KT 10SM CLR M01/M11 A3009 RMK A01
KFYM 130435Z AUTO 33003KT 10SM CLR M01/M11 A3009 RMK A01
KFYM 130415Z AUTO 00000KT 10SM CLR M01/M11 A3009 RMK A01
KFYM 130355Z AUTO 00000KT 10SM CLR M00/M12 A3009 RMK A01
KFYM 130335Z AUTO 00000KT 10SM CLR M00/M11 A3009 RMK A01
KFYM 130315Z AUTO VRB03KT 10SM CLR M00/M11 A3008 RMK A01
KFYM 130255Z AUTO 34005KT 10SM CLR 00/M11 A3008 RMK A01
KFYM 130235Z AUTO 34005KT 10SM CLR 00/M11 A3008 RMK A01
KFYM 130215Z AUTO 33007KT 10SM CLR 01/M11 A3009 RMK A01
KFYM 130155Z AUTO 33007G13KT 10SM CLR 01/M11 A3009 RMK A01
KFYM 130135Z AUTO 33007KT 10SM CLR 01/M11 A3008 RMK A01
KFYM 130115Z AUTO 33007KT 10SM CLR 01/M11 A3008 RMK A01
KFYM 130055Z AUTO 33008KT 10SM CLR 02/M11 A3007 RMK A01
KFYM 130035Z AUTO 33008KT 10SM CLR 02/M11 A3007 RMK A01
KFYM 130015Z AUTO VRB06KT 10SM CLR 02/M11 A3006 RMK A01
KFYM 122355Z AUTO 33007G12KT 10SM CLR 03/M11 A3005 RMK A01
KFYM 122335Z AUTO 33008G13KT 10SM CLR 03/M11 A3005 RMK A01
KFYM 122315Z AUTO 33008G15KT 10SM CLR 04/M11 A3004 RMK A01
KFYM 122255Z AUTO 33009KT 10SM CLR 04/M10 A3003 RMK A01
KFYM 122235Z AUTO 33007G15KT 10SM CLR 05/M09 A3003 RMK A01
KFYM 122215Z AUTO 32012KT 10SM CLR 05/M09 A3003 RMK A01
KFYM 122155Z AUTO 32012KT 10SM CLR 06/M09 A3003 RMK A01
KFYM 122135Z AUTO 31008G18KT 10SM CLR 06/M09 A3002 RMK A01
KFYM 122115Z AUTO VRB06G13KT 10SM CLR 07/M08 A3001 RMK A01
KFYM 122055Z AUTO 33014G23KT 10SM CLR 07/M08 A3001 RMK A01
KFYM 122035Z AUTO 33011G23KT 10SM CLR 07/M07 A3001 RMK A01
KFYM 122015Z AUTO 32010G17KT 10SM CLR 08/M08 A3001 RMK A01
KFYM 121955Z AUTO 31008G15KT 10SM CLR 08/M07 A3001 RMK A01
KFYM 121935Z AUTO 33011G17KT 10SM CLR 08/M07 A3001 RMK A01
KFYM 121915Z AUTO 31007G20KT 270V330 10SM CLR 08/M06 A3001 RMK A01
KFYM 121855Z AUTO 33013KT 10SM CLR 07/M04 A3001 RMK A01
KFYM 121835Z AUTO 32010G16KT 280V340 10SM FEW040 08/M03 A3002 RMK A01
KFYM 121815Z AUTO 32009G15KT 10SM BKN036 BKN043 07/M03 A3002 RMK A01
KFYM 121755Z AUTO 31010G16KT 280V340 10SM OVC034 08/M01 A3003 RMK A01
KFYM 121735Z AUTO 35009G14KT 10SM OVC035 07/M01 A3003 RMK A01
KFYM 121715Z AUTO 30008G23KT 270V340 10SM BKN038 OVC045 07/M02 A3003 RMK A01
KFYM 121655Z AUTO 33011G18KT 10SM BKN039 OVC046 07/M02 A3004 RMK A01
KFYM 121635Z AUTO 31008G17KT 10SM OVC040 07/M02 A3005 RMK A01
KFYM 121615Z AUTO 32010G18KT 10SM OVC042 06/M02 A3005 RMK A01
KFYM 121555Z AUTO 34010G18KT 10SM OVC039 06/M02 A3005 RMK A01
KFYM 121535Z AUTO 34011G18KT 320V030 10SM OVC034 06/M01 A3004 RMK A01
KFYM 121515Z AUTO 33015G24KT 10SM OVC031 06/M01 A3004 RMK A01
KFYM 121455Z AUTO 35013G19KT 10SM OVC029 06/M00 A3003 RMK A01
KFYM 121435Z AUTO 34008G18KT 300V010 10SM BKN030 OVC037 06/00 A3001 RMK A01
KFYM 121415Z AUTO 35008G13KT 320V020 10SM SCT031 OVC037 06/01 A3000 RMK A01